Fenter, Arkansas
Current Conditions -  °F | °C
As of 4:53 AM on Sunday 23 Nov 2014 (Local Time) from KHOT Reporting Station
Overcast Overcast  
Wind Chill: 58°   Ceiling: 700
Heat Index: 58°   Visibility: 10mi
Dew Point: 56°   Wind: 7mph
Humidity: 93%   Direction: 160°SSE
Pressure: 29.66"   Gusts: NA
Location:  34.445°N, 92.6447°W
Report Text: KHOT 231053Z AUTO 16006KT 10SM OVC007 14/13 A2966 RMK AO2 RAE0958 SLP042 P0000 T01440133
Loading
Personal Weather Stations






























Interactive Weather Map New forecast layout! Learn more

10-Day Weather Forecast

Advertisements
Track Severe Weather on mobile